Rickmers Yokohama — A8YA7 — position and weather

sailwx.info

Track history (hours):
 
Tides and Currents Weather Stations Pressure Air Temp Water Temp Dewpoint Dewpoint Depression Visibility Wind Speed Wind Dir Waves Ship Positions

Rickmers Yokohama

Last reported at 2018-May-03 21:15 UTC. Time now 2018-May-24 07:54 UTC.
Position S 30°19' E 030°51'.
Warning: this ship's position is 20 days out of date.

Length 144 m; draft 7.3 m.

Type: Ship. MMSI: 636092187.

Date/timePositionNaut miles runAvg speedWind from/ knotsBaromVisibWave heightAir tempDewpointWater temp
2018-May-03 21:15S 30°19' E 030°51'2 7.1
2018-May-03 21:00S 30°17' E 030°52'4 8.2
2018-May-03 20:30S 30°14' E 030°54'4 8.2
2018-May-03 20:00S 30°10' E 030°56'5 9.6
2018-May-03 19:30S 30°06' E 030°59'5 9.5
2018-May-03 19:00S 30°02' E 031°01'5 9.3
2018-May-03 18:30S 29°58' E 031°04'4 8.7
2018-May-03 18:00S 29°54' E 031°06'3 5.4
2018-May-03 17:30S 29°53' E 031°03'0 0.7
2018-May-03 17:00S 29°52' E 031°03'0 0.0
2018-May-03 16:30S 29°52' E 031°03'0 0.0
2018-May-03 16:00S 29°52' E 031°03'0 0.0
2018-May-03 15:30S 29°52' E 031°03'0 0.0
2018-May-03 15:00S 29°52' E 031°03'0 0.0
2018-May-03 14:30S 29°52' E 031°03'0 0.0
2018-May-03 13:57S 29°52' E 031°03'0 0.0
2018-May-03 13:27S 29°52' E 031°03'0 0.0
2018-May-03 13:00S 29°52' E 031°03'0 0.0
2018-May-03 12:27S 29°52' E 031°03'0 0.0
2018-May-03 11:57S 29°52' E 031°03'0 0.0
2018-May-03 11:30S 29°52' E 031°03'0 0.0
2018-May-03 11:00S 29°52' E 031°03'0 0.0
2018-May-03 10:30S 29°52' E 031°03'0 0.0
2018-May-03 10:00S 29°52' E 031°03'0 0.0
2018-May-03 09:30S 29°52' E 031°03'0 0.0
2018-May-03 09:00S 29°52' E 031°03'0 0.0
2018-May-03 08:27S 29°52' E 031°03'0 0.0
2018-May-03 08:00S 29°52' E 031°03'0 0.0
2018-May-03 07:30S 29°52' E 031°03'0 0.0
2018-May-03 07:00S 29°52' E 031°03'0 0.0
2018-May-03 06:30S 29°52' E 031°03'0 0.0
2018-May-03 05:57S 29°52' E 031°03'0 0.0
2018-May-03 05:30S 29°52' E 031°03'0 0.0
2018-May-03 05:00S 29°52' E 031°03'0 0.0
2018-May-03 04:30S 29°52' E 031°03'0 0.0
2018-May-03 04:00S 29°52' E 031°03'0 0.0
2018-May-03 03:30S 29°52' E 031°03'0 0.0
2018-May-03 03:00S 29°52' E 031°03'0 0.0
2018-May-03 02:30S 29°52' E 031°03'0 0.0
2018-May-03 02:00S 29°52' E 031°03'0 0.0
2018-May-03 01:30S 29°52' E 031°03'0 0.0
2018-May-03 01:00S 29°52' E 031°03'0 0.0
2018-May-03 00:30S 29°52' E 031°03'0 0.0
2018-May-03 00:00S 29°52' E 031°03'0 0.0
2018-May-02 23:30S 29°52' E 031°03'0 0.0
2018-May-02 23:00S 29°52' E 031°03'0 0.0
2018-May-02 22:30S 29°52' E 031°03'0 0.0
2018-May-02 22:00S 29°52' E 031°03'0 0.0
2018-May-02 21:30S 29°52' E 031°03'0 0.0
2018-May-02 21:00S 29°52' E 031°03'0 0.0
2018-May-02 20:30S 29°52' E 031°03'0 0.0
2018-May-02 20:00S 29°52' E 031°03'0 0.0
2018-May-02 19:30S 29°52' E 031°03'0 0.0
2018-May-02 19:00S 29°52' E 031°03'0 0.0
2018-May-02 18:30S 29°52' E 031°03'0 0.0
2018-May-02 18:00S 29°52' E 031°03'0 0.0
2018-May-02 17:30S 29°52' E 031°03'0 0.0
2018-May-02 17:00S 29°52' E 031°03'0 0.0
2018-May-02 16:27S 29°52' E 031°03'0 0.0
2018-May-02 16:00S 29°52' E 031°03'0 0.0
2018-May-02 15:30S 29°52' E 031°03'0 0.0
2018-May-02 15:00S 29°52' E 031°03'0 0.0
2018-May-02 14:27S 29°52' E 031°03'0 0.0
2018-May-02 14:00S 29°52' E 031°03'0 0.0
2018-May-02 13:30S 29°52' E 031°03'0 0.0
2018-May-02 12:57S 29°52' E 031°03'0 0.0
2018-May-02 12:30S 29°52' E 031°03'0 0.0
2018-May-02 11:57S 29°52' E 031°03'0 0.0
2018-May-02 11:27S 29°52' E 031°03'0 0.0
2018-May-02 11:00S 29°52' E 031°03'0 0.0
2018-May-02 10:30S 29°52' E 031°03'0 0.0
2018-May-02 10:00S 29°52' E 031°03'0 0.0
2018-May-02 09:27S 29°52' E 031°03'0 0.0
2018-May-02 09:00S 29°52' E 031°03'0 0.0
2018-May-02 08:30S 29°52' E 031°03'0 0.0
2018-May-02 07:57S 29°52' E 031°03'0 0.0
2018-May-02 07:27S 29°52' E 031°03'0 0.0
2018-May-02 07:00S 29°52' E 031°03'0 0.0
2018-May-02 06:30S 29°52' E 031°03'0 0.0
2018-May-02 06:00S 29°52' E 031°03'0 0.0
2018-May-02 05:30S 29°52' E 031°03'0 0.0
2018-May-02 05:00S 29°52' E 031°03'0 0.0
2018-May-02 04:30S 29°52' E 031°03'0 0.0
2018-May-02 04:00S 29°52' E 031°03'0 0.0
2018-May-02 03:30S 29°52' E 031°03'0 0.0
2018-May-02 03:00S 29°52' E 031°03'0 0.0
2018-May-02 02:30S 29°52' E 031°03'0 0.0
2018-May-02 02:00S 29°52' E 031°03'0 0.0
2018-May-02 01:30S 29°52' E 031°03'0 0.0
2018-May-02 01:00S 29°52' E 031°03'0 0.0
2018-May-02 00:30S 29°52' E 031°03'0 0.0
2018-May-02 00:00S 29°52' E 031°03'0 0.0
2018-May-01 23:30S 29°52' E 031°03'0 0.0
2018-May-01 23:00S 29°52' E 031°03'0 0.0
2018-May-01 22:30S 29°52' E 031°03'0 0.0
2018-May-01 22:00S 29°52' E 031°03'0 0.0
2018-May-01 21:30S 29°52' E 031°03'0 0.0
2018-May-01 21:00S 29°52' E 031°03'0 0.0
2018-May-01 20:30S 29°52' E 031°03'0 0.0
2018-May-01 20:00S 29°52' E 031°03'0 0.0
2018-May-01 19:30S 29°52' E 031°03'0 0.0
2018-May-01 19:00S 29°52' E 031°03'0 0.0
2018-May-01 18:30S 29°52' E 031°03'0 0.0
2018-May-01 18:00S 29°52' E 031°03'0 0.0
2018-May-01 17:30S 29°52' E 031°03'0 0.0
2018-May-01 17:00S 29°52' E 031°03'0 0.0
2018-May-01 16:30S 29°52' E 031°03'0 0.0
2018-May-01 16:00S 29°52' E 031°03'0 0.0
2018-May-01 15:30S 29°52' E 031°03'0 0.0
2018-May-01 15:00S 29°52' E 031°03'0 0.0
2018-May-01 14:30S 29°52' E 031°03'0 0.0
2018-May-01 13:57S 29°52' E 031°03'0 0.0
2018-May-01 13:30S 29°52' E 031°03'0 0.0
2018-May-01 12:57S 29°52' E 031°03'0 0.0
2018-May-01 12:30S 29°52' E 031°03'0 0.0
2018-May-01 11:57S 29°52' E 031°03'0 0.0
2018-May-01 11:30S 29°52' E 031°03'0 0.0
2018-May-01 10:57S 29°52' E 031°03'0 0.0
2018-May-01 10:30S 29°52' E 031°03'0 0.0
2018-May-01 10:00S 29°52' E 031°03'0 0.0
2018-May-01 09:30S 29°52' E 031°03'0 0.0
2018-May-01 09:00S 29°52' E 031°03'0 0.0
2018-May-01 08:30S 29°52' E 031°03'0 0.0
2018-May-01 08:00S 29°52' E 031°03'0 0.0
2018-May-01 07:30S 29°52' E 031°03'0 0.0
2018-May-01 07:00S 29°52' E 031°03'0 0.0
2018-May-01 06:30S 29°52' E 031°03'0 0.0
2018-May-01 06:00S 29°52' E 031°03'0 0.0
2018-May-01 05:27S 29°52' E 031°03'0 0.0
2018-May-01 05:00S 29°52' E 031°03'0 0.0
2018-May-01 04:27S 29°52' E 031°03'0 0.0
2018-May-01 04:00S 29°52' E 031°03'0 0.0
2018-May-01 03:30S 29°52' E 031°03'0 0.0
2018-May-01 03:00S 29°52' E 031°03'0 0.0
2018-May-01 02:30S 29°52' E 031°03'0 0.0
2018-May-01 02:00S 29°52' E 031°03'0 0.0
2018-May-01 01:30S 29°52' E 031°03'0 0.0
2018-May-01 01:00S 29°52' E 031°03'0 0.0
2018-May-01 00:30S 29°52' E 031°03'0 0.0
2018-May-01 00:00S 29°52' E 031°03'0 0.0
2018-Apr-30 23:24S 29°52' E 031°03'0 0.0
2018-Apr-30 23:00S 29°52' E 031°03'0 0.0
2018-Apr-30 22:27S 29°52' E 031°03'0 0.0
2018-Apr-30 22:00S 29°52' E 031°03'0 0.0
2018-Apr-30 21:27S 29°52' E 031°03'0 0.0
2018-Apr-30 21:00S 29°52' E 031°03'0 0.0
2018-Apr-30 20:30S 29°52' E 031°03'0 0.0
2018-Apr-30 20:00S 29°52' E 031°03'0 0.0
2018-Apr-30 19:30S 29°52' E 031°03'0 0.0
2018-Apr-30 19:00S 29°52' E 031°03'0 0.0
2018-Apr-30 18:30S 29°52' E 031°03'0 0.0
2018-Apr-30 18:00S 29°52' E 031°03'0 0.0
2018-Apr-30 17:30S 29°52' E 031°03'0 0.0
2018-Apr-30 17:00S 29°52' E 031°03'0 0.0
2018-Apr-30 16:30S 29°52' E 031°03'0 0.0
2018-Apr-30 16:00S 29°52' E 031°03'0 0.0
2018-Apr-30 15:30S 29°52' E 031°03'0 0.0
2018-Apr-30 14:57S 29°52' E 031°03'0 0.0
2018-Apr-30 14:27S 29°52' E 031°03'0 0.0
2018-Apr-30 13:54S 29°52' E 031°03'0 0.0
2018-Apr-30 13:30S 29°52' E 031°03'0 0.0
2018-Apr-30 12:57S 29°52' E 031°03'0 0.0
2018-Apr-30 12:30S 29°52' E 031°03'0 0.0
2018-Apr-30 12:00S 29°52' E 031°03'0 0.0
2018-Apr-30 11:30S 29°52' E 031°03'0 0.0
2018-Apr-30 10:57S 29°52' E 031°03'0 0.0
2018-Apr-30 10:30S 29°52' E 031°03'0 0.0
2018-Apr-30 10:00S 29°52' E 031°03'0 0.0
2018-Apr-30 09:30S 29°52' E 031°03'0 0.0
2018-Apr-30 09:00S 29°52' E 031°03'0 0.0
2018-Apr-30 08:27S 29°52' E 031°03'0 0.0
2018-Apr-30 07:57S 29°52' E 031°03'0 0.0
2018-Apr-30 07:30S 29°52' E 031°03'0 0.0
2018-Apr-30 07:00S 29°52' E 031°03'0 0.0
2018-Apr-30 06:30S 29°52' E 031°03'0 0.0
2018-Apr-30 05:56S 29°52' E 031°03'0 1.0
2018-Apr-30 05:30S 29°53' E 031°03'4 8.0
2018-Apr-30 05:01S 29°50' E 031°06'4 8.0
2018-Apr-30 04:31S 29°48' E 031°10'2 3.4
2018-Apr-30 04:01S 29°47' E 031°11'1 2.9
2018-Apr-30 03:30S 29°45' E 031°12'611.2
2018-Apr-30 03:01S 29°41' E 031°16'611.9
2018-Apr-30 02:31S 29°37' E 031°21'611.7
2018-Apr-30 02:01S 29°33' E 031°26'4 7.7
2018-Apr-30 01:30S 29°30' E 031°29'3 6.5
2018-Apr-30 01:00S 29°27' E 031°31'3 6.7
2018-Apr-30 00:30S 29°25' E 031°34'4 7.0
2018-Apr-30 00:00S 29°23' E 031°37'4 7.2
2018-Apr-29 23:30S 29°20' E 031°40'4 7.5
2018-Apr-29 23:01S 29°17' E 031°43'4 7.6
2018-Apr-29 22:27S 29°14' E 031°46'28 0.8
2018-Apr-28 12:29S 28°53' E 032°07'0 0.0
2018-Apr-28 11:53S 28°53' E 032°07'0 0.0
2018-Apr-28 09:20S 28°53' E 032°07'0 0.1
2018-Apr-28 08:51S 28°53' E 032°07'1 3.3
2018-Apr-28 08:27S 28°54' E 032°09'612.3
2018-Apr-28 08:00S 28°53' E 032°15'612.4
2018-Apr-28 07:30S 28°53' E 032°22'912.3
2018-Apr-28 06:48S 28°55' E 032°32'412.4
2018-Apr-28 06:30S 28°55' E 032°36'612.7
2018-Apr-28 06:00S 28°56' E 032°43'1011.0
2018-Apr-28 05:04S 28°57' E 032°55'110.3
2018-Apr-28 05:00S 28°58' E 032°56'  
Track history (hours):
 
Tides and Currents Weather Stations Pressure Air Temp Water Temp Dewpoint Dewpoint Depression Visibility Wind Speed Wind Dir Waves Ship Positions

Rickmers Yokohama

Last reported at 2018-May-03 21:15 UTC. Time now 2018-May-24 07:54 UTC.
Position S 30°19' E 030°51'.
Warning: this ship's position is 20 days out of date.

Length 144 m; draft 7.3 m.

Type: Ship. MMSI: 636092187.

Date/timePositionNaut miles runAvg speedWind from/ knotsBaromVisibWave heightAir tempDewpointWater temp
2018-May-03 21:15S 30°19' E 030°51'2 7.1
2018-May-03 21:00S 30°17' E 030°52'4 8.2
2018-May-03 20:30S 30°14' E 030°54'4 8.2
2018-May-03 20:00S 30°10' E 030°56'5 9.6
2018-May-03 19:30S 30°06' E 030°59'5 9.5
2018-May-03 19:00S 30°02' E 031°01'5 9.3
2018-May-03 18:30S 29°58' E 031°04'4 8.7
2018-May-03 18:00S 29°54' E 031°06'3 5.4
2018-May-03 17:30S 29°53' E 031°03'0 0.7
2018-May-03 17:00S 29°52' E 031°03'0 0.0
2018-May-03 16:30S 29°52' E 031°03'0 0.0
2018-May-03 16:00S 29°52' E 031°03'0 0.0
2018-May-03 15:30S 29°52' E 031°03'0 0.0
2018-May-03 15:00S 29°52' E 031°03'0 0.0
2018-May-03 14:30S 29°52' E 031°03'0 0.0
2018-May-03 13:57S 29°52' E 031°03'0 0.0
2018-May-03 13:27S 29°52' E 031°03'0 0.0
2018-May-03 13:00S 29°52' E 031°03'0 0.0
2018-May-03 12:27S 29°52' E 031°03'0 0.0
2018-May-03 11:57S 29°52' E 031°03'0 0.0
2018-May-03 11:30S 29°52' E 031°03'0 0.0
2018-May-03 11:00S 29°52' E 031°03'0 0.0
2018-May-03 10:30S 29°52' E 031°03'0 0.0
2018-May-03 10:00S 29°52' E 031°03'0 0.0
2018-May-03 09:30S 29°52' E 031°03'0 0.0
2018-May-03 09:00S 29°52' E 031°03'0 0.0
2018-May-03 08:27S 29°52' E 031°03'0 0.0
2018-May-03 08:00S 29°52' E 031°03'0 0.0
2018-May-03 07:30S 29°52' E 031°03'0 0.0
2018-May-03 07:00S 29°52' E 031°03'0 0.0
2018-May-03 06:30S 29°52' E 031°03'0 0.0
2018-May-03 05:57S 29°52' E 031°03'0 0.0
2018-May-03 05:30S 29°52' E 031°03'0 0.0
2018-May-03 05:00S 29°52' E 031°03'0 0.0
2018-May-03 04:30S 29°52' E 031°03'0 0.0
2018-May-03 04:00S 29°52' E 031°03'0 0.0
2018-May-03 03:30S 29°52' E 031°03'0 0.0
2018-May-03 03:00S 29°52' E 031°03'0 0.0
2018-May-03 02:30S 29°52' E 031°03'0 0.0
2018-May-03 02:00S 29°52' E 031°03'0 0.0
2018-May-03 01:30S 29°52' E 031°03'0 0.0
2018-May-03 01:00S 29°52' E 031°03'0 0.0
2018-May-03 00:30S 29°52' E 031°03'0 0.0
2018-May-03 00:00S 29°52' E 031°03'0 0.0
2018-May-02 23:30S 29°52' E 031°03'0 0.0
2018-May-02 23:00S 29°52' E 031°03'0 0.0
2018-May-02 22:30S 29°52' E 031°03'0 0.0
2018-May-02 22:00S 29°52' E 031°03'0 0.0
2018-May-02 21:30S 29°52' E 031°03'0 0.0
2018-May-02 21:00S 29°52' E 031°03'0 0.0
2018-May-02 20:30S 29°52' E 031°03'0 0.0
2018-May-02 20:00S 29°52' E 031°03'0 0.0
2018-May-02 19:30S 29°52' E 031°03'0 0.0
2018-May-02 19:00S 29°52' E 031°03'0 0.0
2018-May-02 18:30S 29°52' E 031°03'0 0.0
2018-May-02 18:00S 29°52' E 031°03'0 0.0
2018-May-02 17:30S 29°52' E 031°03'0 0.0
2018-May-02 17:00S 29°52' E 031°03'0 0.0
2018-May-02 16:27S 29°52' E 031°03'0 0.0
2018-May-02 16:00S 29°52' E 031°03'0 0.0
2018-May-02 15:30S 29°52' E 031°03'0 0.0
2018-May-02 15:00S 29°52' E 031°03'0 0.0
2018-May-02 14:27S 29°52' E 031°03'0 0.0
2018-May-02 14:00S 29°52' E 031°03'0 0.0
2018-May-02 13:30S 29°52' E 031°03'0 0.0
2018-May-02 12:57S 29°52' E 031°03'0 0.0
2018-May-02 12:30S 29°52' E 031°03'0 0.0
2018-May-02 11:57S 29°52' E 031°03'0 0.0
2018-May-02 11:27S 29°52' E 031°03'0 0.0
2018-May-02 11:00S 29°52' E 031°03'0 0.0
2018-May-02 10:30S 29°52' E 031°03'0 0.0
2018-May-02 10:00S 29°52' E 031°03'0 0.0
2018-May-02 09:27S 29°52' E 031°03'0 0.0
2018-May-02 09:00S 29°52' E 031°03'0 0.0
2018-May-02 08:30S 29°52' E 031°03'0 0.0
2018-May-02 07:57S 29°52' E 031°03'0 0.0
2018-May-02 07:27S 29°52' E 031°03'0 0.0
2018-May-02 07:00S 29°52' E 031°03'0 0.0
2018-May-02 06:30S 29°52' E 031°03'0 0.0
2018-May-02 06:00S 29°52' E 031°03'0 0.0
2018-May-02 05:30S 29°52' E 031°03'0 0.0
2018-May-02 05:00S 29°52' E 031°03'0 0.0
2018-May-02 04:30S 29°52' E 031°03'0 0.0
2018-May-02 04:00S 29°52' E 031°03'0 0.0
2018-May-02 03:30S 29°52' E 031°03'0 0.0
2018-May-02 03:00S 29°52' E 031°03'0 0.0
2018-May-02 02:30S 29°52' E 031°03'0 0.0
2018-May-02 02:00S 29°52' E 031°03'0 0.0
2018-May-02 01:30S 29°52' E 031°03'0 0.0
2018-May-02 01:00S 29°52' E 031°03'0 0.0
2018-May-02 00:30S 29°52' E 031°03'0 0.0
2018-May-02 00:00S 29°52' E 031°03'0 0.0
2018-May-01 23:30S 29°52' E 031°03'0 0.0
2018-May-01 23:00S 29°52' E 031°03'0 0.0
2018-May-01 22:30S 29°52' E 031°03'0 0.0
2018-May-01 22:00S 29°52' E 031°03'0 0.0
2018-May-01 21:30S 29°52' E 031°03'0 0.0
2018-May-01 21:00S 29°52' E 031°03'0 0.0
2018-May-01 20:30S 29°52' E 031°03'0 0.0
2018-May-01 20:00S 29°52' E 031°03'0 0.0
2018-May-01 19:30S 29°52' E 031°03'0 0.0
2018-May-01 19:00S 29°52' E 031°03'0 0.0
2018-May-01 18:30S 29°52' E 031°03'0 0.0
2018-May-01 18:00S 29°52' E 031°03'0 0.0
2018-May-01 17:30S 29°52' E 031°03'0 0.0
2018-May-01 17:00S 29°52' E 031°03'0 0.0
2018-May-01 16:30S 29°52' E 031°03'0 0.0
2018-May-01 16:00S 29°52' E 031°03'0 0.0
2018-May-01 15:30S 29°52' E 031°03'0 0.0
2018-May-01 15:00S 29°52' E 031°03'0 0.0
2018-May-01 14:30S 29°52' E 031°03'0 0.0
2018-May-01 13:57S 29°52' E 031°03'0 0.0
2018-May-01 13:30S 29°52' E 031°03'0 0.0
2018-May-01 12:57S 29°52' E 031°03'0 0.0
2018-May-01 12:30S 29°52' E 031°03'0 0.0
2018-May-01 11:57S 29°52' E 031°03'0 0.0
2018-May-01 11:30S 29°52' E 031°03'0 0.0
2018-May-01 10:57S 29°52' E 031°03'0 0.0
2018-May-01 10:30S 29°52' E 031°03'0 0.0
2018-May-01 10:00S 29°52' E 031°03'0 0.0
2018-May-01 09:30S 29°52' E 031°03'0 0.0
2018-May-01 09:00S 29°52' E 031°03'0 0.0
2018-May-01 08:30S 29°52' E 031°03'0 0.0
2018-May-01 08:00S 29°52' E 031°03'0 0.0
2018-May-01 07:30S 29°52' E 031°03'0 0.0
2018-May-01 07:00S 29°52' E 031°03'0 0.0
2018-May-01 06:30S 29°52' E 031°03'0 0.0
2018-May-01 06:00S 29°52' E 031°03'0 0.0
2018-May-01 05:27S 29°52' E 031°03'0 0.0
2018-May-01 05:00S 29°52' E 031°03'0 0.0
2018-May-01 04:27S 29°52' E 031°03'0 0.0
2018-May-01 04:00S 29°52' E 031°03'0 0.0
2018-May-01 03:30S 29°52' E 031°03'0 0.0
2018-May-01 03:00S 29°52' E 031°03'0 0.0
2018-May-01 02:30S 29°52' E 031°03'0 0.0
2018-May-01 02:00S 29°52' E 031°03'0 0.0
2018-May-01 01:30S 29°52' E 031°03'0 0.0
2018-May-01 01:00S 29°52' E 031°03'0 0.0
2018-May-01 00:30S 29°52' E 031°03'0 0.0
2018-May-01 00:00S 29°52' E 031°03'0 0.0
2018-Apr-30 23:24S 29°52' E 031°03'0 0.0
2018-Apr-30 23:00S 29°52' E 031°03'0 0.0
2018-Apr-30 22:27S 29°52' E 031°03'0 0.0
2018-Apr-30 22:00S 29°52' E 031°03'0 0.0
2018-Apr-30 21:27S 29°52' E 031°03'0 0.0
2018-Apr-30 21:00S 29°52' E 031°03'0 0.0
2018-Apr-30 20:30S 29°52' E 031°03'0 0.0
2018-Apr-30 20:00S 29°52' E 031°03'0 0.0
2018-Apr-30 19:30S 29°52' E 031°03'0 0.0
2018-Apr-30 19:00S 29°52' E 031°03'0 0.0
2018-Apr-30 18:30S 29°52' E 031°03'0 0.0
2018-Apr-30 18:00S 29°52' E 031°03'0 0.0
2018-Apr-30 17:30S 29°52' E 031°03'0 0.0
2018-Apr-30 17:00S 29°52' E 031°03'0 0.0
2018-Apr-30 16:30S 29°52' E 031°03'0 0.0
2018-Apr-30 16:00S 29°52' E 031°03'0 0.0
2018-Apr-30 15:30S 29°52' E 031°03'0 0.0
2018-Apr-30 14:57S 29°52' E 031°03'0 0.0
2018-Apr-30 14:27S 29°52' E 031°03'0 0.0
2018-Apr-30 13:54S 29°52' E 031°03'0 0.0
2018-Apr-30 13:30S 29°52' E 031°03'0 0.0
2018-Apr-30 12:57S 29°52' E 031°03'0 0.0
2018-Apr-30 12:30S 29°52' E 031°03'0 0.0
2018-Apr-30 12:00S 29°52' E 031°03'0 0.0
2018-Apr-30 11:30S 29°52' E 031°03'0 0.0
2018-Apr-30 10:57S 29°52' E 031°03'0 0.0
2018-Apr-30 10:30S 29°52' E 031°03'0 0.0
2018-Apr-30 10:00S 29°52' E 031°03'0 0.0
2018-Apr-30 09:30S 29°52' E 031°03'0 0.0
2018-Apr-30 09:00S 29°52' E 031°03'0 0.0
2018-Apr-30 08:27S 29°52' E 031°03'0 0.0
2018-Apr-30 07:57S 29°52' E 031°03'0 0.0
2018-Apr-30 07:30S 29°52' E 031°03'0 0.0
2018-Apr-30 07:00S 29°52' E 031°03'0 0.0
2018-Apr-30 06:30S 29°52' E 031°03'0 0.0
2018-Apr-30 05:56S 29°52' E 031°03'0 1.0
2018-Apr-30 05:30S 29°53' E 031°03'4 8.0
2018-Apr-30 05:01S 29°50' E 031°06'4 8.0
2018-Apr-30 04:31S 29°48' E 031°10'2 3.4
2018-Apr-30 04:01S 29°47' E 031°11'1 2.9
2018-Apr-30 03:30S 29°45' E 031°12'611.2
2018-Apr-30 03:01S 29°41' E 031°16'611.9
2018-Apr-30 02:31S 29°37' E 031°21'611.7
2018-Apr-30 02:01S 29°33' E 031°26'4 7.7
2018-Apr-30 01:30S 29°30' E 031°29'3 6.5
2018-Apr-30 01:00S 29°27' E 031°31'3 6.7
2018-Apr-30 00:30S 29°25' E 031°34'4 7.0
2018-Apr-30 00:00S 29°23' E 031°37'4 7.2
2018-Apr-29 23:30S 29°20' E 031°40'4 7.5
2018-Apr-29 23:01S 29°17' E 031°43'4 7.6
2018-Apr-29 22:27S 29°14' E 031°46'28 0.8
2018-Apr-28 12:29S 28°53' E 032°07'0 0.0
2018-Apr-28 11:53S 28°53' E 032°07'0 0.0
2018-Apr-28 09:20S 28°53' E 032°07'0 0.1
2018-Apr-28 08:51S 28°53' E 032°07'1 3.3
2018-Apr-28 08:27S 28°54' E 032°09'612.3
2018-Apr-28 08:00S 28°53' E 032°15'612.4
2018-Apr-28 07:30S 28°53' E 032°22'912.3
2018-Apr-28 06:48S 28°55' E 032°32'412.4
2018-Apr-28 06:30S 28°55' E 032°36'612.7
2018-Apr-28 06:00S 28°56' E 032°43'1011.0
2018-Apr-28 05:04S 28°57' E 032°55'110.3
2018-Apr-28 05:00S 28°58' E 032°56'  

Dump ship's entire track history